createdAt,value
2018-12-13T00:00:52.744Z,14.65
2018-12-13T00:03:19.443Z,14.40
2018-12-13T00:05:46.221Z,13.08
2018-12-13T00:08:12.905Z,14.18
2018-12-13T00:10:39.665Z,16.67
2018-12-13T00:13:06.451Z,16.40
2018-12-13T00:15:33.198Z,15.18
2018-12-13T00:17:59.910Z,12.50
2018-12-13T00:20:26.874Z,12.28
2018-12-13T00:22:53.634Z,15.65
2018-12-13T00:25:20.346Z,15.90
2018-12-13T00:27:47.089Z,16.00
2018-12-13T00:30:13.833Z,14.85
2018-12-13T00:32:40.534Z,12.07
2018-12-13T00:35:07.242Z,15.05
2018-12-13T00:37:33.959Z,12.33
2018-12-13T00:40:00.674Z,13.43
2018-12-13T00:42:27.381Z,12.28
2018-12-13T00:44:54.307Z,13.53
2018-12-13T00:47:21.024Z,14.78
2018-12-13T00:49:47.728Z,12.00
2018-12-13T00:52:14.474Z,13.45
2018-12-13T00:54:41.174Z,14.40
2018-12-13T00:57:07.875Z,13.25
2018-12-13T00:59:34.597Z,12.23
2018-12-13T01:02:01.316Z,12.75
2018-12-13T01:04:28.008Z,16.42
2018-12-13T01:06:54.718Z,12.65
2018-12-13T01:09:21.446Z,16.65
2018-12-13T01:11:48.152Z,13.75
2018-12-13T01:14:14.855Z,18.92
2018-12-13T01:16:41.630Z,19.35
2018-12-13T01:19:08.333Z,15.48
2018-12-13T01:21:35.032Z,18.90
2018-12-13T01:24:01.750Z,20.88
2018-12-13T01:26:28.456Z,17.57
2018-12-13T01:28:55.196Z,17.95
2018-12-13T01:31:21.903Z,16.10
2018-12-13T01:33:48.615Z,16.45
2018-12-13T01:36:15.342Z,13.83
2018-12-13T01:38:42.053Z,17.15
2018-12-13T01:41:08.751Z,19.05
2018-12-13T01:43:35.481Z,15.63
2018-12-13T01:46:02.227Z,17.70
2018-12-13T01:48:28.925Z,17.65
2018-12-13T01:50:55.636Z,19.32
2018-12-13T01:53:22.398Z,20.48
2018-12-13T01:55:49.111Z,21.02
2018-12-13T01:58:15.841Z,21.15
2018-12-13T02:00:42.557Z,18.45
2018-12-13T02:03:09.255Z,19.87
2018-12-13T02:05:35.973Z,20.48
2018-12-13T02:08:02.676Z,21.55
2018-12-13T02:10:29.406Z,18.70
2018-12-13T02:12:56.117Z,22.95
2018-12-13T02:15:22.878Z,24.35
2018-12-13T02:17:49.584Z,27.48
2018-12-13T02:20:16.283Z,23.87
2018-12-13T02:22:43.013Z,27.02
2018-12-13T02:25:09.713Z,31.97
2018-12-13T02:27:36.442Z,24.00
2018-12-13T02:30:03.694Z,27.90
2018-12-13T02:32:30.389Z,28.70
2018-12-13T02:34:57.127Z,26.40
2018-12-13T02:37:23.906Z,26.12
2018-12-13T02:39:50.610Z,29.75
2018-12-13T02:42:17.330Z,26.70
2018-12-13T02:44:44.027Z,32.28
2018-12-13T02:47:10.746Z,29.20
2018-12-13T02:49:37.441Z,28.65
2018-12-13T02:52:04.148Z,31.97
2018-12-13T02:54:30.858Z,31.55
2018-12-13T02:56:57.581Z,27.62
2018-12-13T02:59:24.322Z,27.37
2018-12-13T03:01:51.031Z,26.35
2018-12-13T03:04:17.783Z,28.02
2018-12-13T03:06:44.510Z,31.12
2018-12-13T03:09:11.217Z,31.50
2018-12-13T03:11:37.931Z,29.77
2018-12-13T03:14:04.642Z,24.45
2018-12-13T03:16:31.367Z,31.93
2018-12-13T03:18:58.113Z,29.42
2018-12-13T03:21:24.848Z,28.52
2018-12-13T03:23:51.568Z,27.65
2018-12-13T03:26:18.279Z,27.87
2018-12-13T03:28:44.994Z,31.12
2018-12-13T03:31:11.690Z,26.23
2018-12-13T03:33:38.417Z,29.35
2018-12-13T03:36:05.117Z,26.55
2018-12-13T03:38:31.839Z,29.07
2018-12-13T03:40:58.535Z,29.30
2018-12-13T03:43:25.286Z,33.33
2018-12-13T03:45:52.561Z,30.80
2018-12-13T03:48:19.414Z,30.08
2018-12-13T03:50:46.239Z,32.50
2018-12-13T03:53:12.950Z,28.40
2018-12-13T03:55:39.653Z,26.35
2018-12-13T03:58:06.372Z,29.35
2018-12-13T04:00:33.087Z,32.03
2018-12-13T04:02:59.831Z,29.48
2018-12-13T04:05:26.537Z,31.42
2018-12-13T04:07:53.241Z,29.75
2018-12-13T04:10:19.986Z,26.45
2018-12-13T04:12:46.694Z,30.17
2018-12-13T04:15:13.412Z,29.80
2018-12-13T04:17:40.153Z,32.73
2018-12-13T04:20:06.898Z,27.07
2018-12-13T04:22:33.634Z,23.47
2018-12-13T04:25:00.354Z,22.85
2018-12-13T04:27:27.062Z,24.65
2018-12-13T04:29:53.781Z,23.15
2018-12-13T04:32:20.483Z,23.67
2018-12-13T04:34:47.185Z,21.48
2018-12-13T04:37:13.921Z,23.55
2018-12-13T04:39:40.614Z,18.12
2018-12-13T04:42:07.309Z,20.08
2018-12-13T04:44:34.045Z,22.27
2018-12-13T04:47:00.777Z,16.35
2018-12-13T04:49:27.486Z,18.25
2018-12-13T04:51:54.225Z,18.98
2018-12-13T04:54:20.934Z,17.25
2018-12-13T04:56:47.644Z,18.27
2018-12-13T04:59:14.373Z,19.65
2018-12-13T05:01:41.073Z,17.98
2018-12-13T05:04:07.825Z,22.55
2018-12-13T05:06:34.540Z,18.77
2018-12-13T05:09:01.259Z,27.05
2018-12-13T05:11:27.965Z,25.32
2018-12-13T05:13:54.686Z,18.37
2018-12-13T05:16:21.382Z,17.90
2018-12-13T05:18:48.102Z,18.00
2018-12-13T05:21:14.811Z,20.55
2018-12-13T05:23:41.548Z,20.32
2018-12-13T05:26:08.246Z,17.30
2018-12-13T05:28:34.954Z,15.65
2018-12-13T05:31:01.732Z,15.40
2018-12-13T05:33:28.430Z,17.40
2018-12-13T05:35:55.132Z,14.55
2018-12-13T05:38:21.847Z,14.98
2018-12-13T05:40:48.551Z,11.65
2018-12-13T05:43:15.252Z,18.32
2018-12-13T05:45:42.034Z,16.37
2018-12-13T05:48:08.728Z,14.03
2018-12-13T05:50:35.424Z,15.93
2018-12-13T05:53:02.157Z,15.65
2018-12-13T05:55:28.858Z,36.30
2018-12-13T05:57:55.564Z,17.50
2018-12-13T06:00:22.269Z,16.30
2018-12-13T06:02:48.985Z,15.40
2018-12-13T06:05:15.768Z,19.55
2018-12-13T06:07:42.486Z,14.70
2018-12-13T06:10:09.219Z,16.35
2018-12-13T06:12:35.924Z,14.93
2018-12-13T06:15:02.630Z,16.42
2018-12-13T06:17:29.358Z,18.82
2018-12-13T06:19:56.057Z,16.23
2018-12-13T06:22:22.754Z,15.85
2018-12-13T06:24:49.474Z,15.93
2018-12-13T06:27:16.189Z,14.75
2018-12-13T06:29:48.726Z,17.30
2018-12-13T06:32:11.745Z,16.60
2018-12-13T06:34:38.438Z,17.87
2018-12-13T06:37:05.181Z,16.87
2018-12-13T06:39:31.895Z,16.93
2018-12-13T06:41:58.625Z,13.93
2018-12-13T06:44:25.322Z,16.65
2018-12-13T06:46:52.478Z,15.25
2018-12-13T06:49:19.188Z,13.25
2018-12-13T06:51:45.935Z,14.58
2018-12-13T06:54:12.655Z,16.60
2018-12-13T06:56:39.394Z,14.93
2018-12-13T06:59:06.094Z,17.45
2018-12-13T07:01:32.792Z,15.00
2018-12-13T07:03:59.512Z,14.60
2018-12-13T07:06:26.211Z,13.65
2018-12-13T07:08:52.927Z,14.63
2018-12-13T07:11:19.664Z,13.80
2018-12-13T07:13:46.391Z,13.80
2018-12-13T07:16:13.085Z,14.58
2018-12-13T07:18:39.814Z,14.20
2018-12-13T07:21:06.538Z,13.45
2018-12-13T07:23:33.235Z,14.53
2018-12-13T07:25:59.949Z,14.83
2018-12-13T07:28:26.659Z,14.70
2018-12-13T07:30:53.373Z,14.65
2018-12-13T07:33:20.074Z,13.85
2018-12-13T07:35:46.769Z,13.90
2018-12-13T07:38:14.357Z,15.18
2018-12-13T07:40:41.323Z,16.70
2018-12-13T07:43:08.016Z,12.40
2018-12-13T07:45:34.755Z,14.50
2018-12-13T07:48:01.495Z,14.53
2018-12-13T07:50:28.726Z,12.55
2018-12-13T07:52:55.445Z,12.63
2018-12-13T07:55:22.146Z,12.23
2018-12-13T07:57:48.875Z,13.90
2018-12-13T08:00:15.631Z,13.20
2018-12-13T08:02:42.320Z,12.07
2018-12-13T08:05:09.069Z,12.82
2018-12-13T08:07:35.823Z,11.03
2018-12-13T08:10:02.771Z,10.53
2018-12-13T08:12:29.510Z,14.95
2018-12-13T08:14:56.213Z,13.90
2018-12-13T08:17:22.916Z,16.25
2018-12-13T08:19:49.629Z,12.88
2018-12-13T08:22:16.336Z,11.80
2018-12-13T08:24:43.056Z,11.38
2018-12-13T08:27:09.750Z,11.70
2018-12-13T08:29:36.453Z,11.28
2018-12-13T08:32:03.176Z,12.20
2018-12-13T08:34:29.924Z,11.70
2018-12-13T08:36:56.613Z,11.73
2018-12-13T08:39:23.309Z,9.40
2018-12-13T08:41:50.015Z,9.25
2018-12-13T08:44:16.894Z,11.97
2018-12-13T08:46:43.606Z,10.50
2018-12-13T08:49:10.297Z,10.35
2018-12-13T08:51:37.078Z,11.20
2018-12-13T08:54:03.760Z,9.78
2018-12-13T08:56:30.515Z,11.68
2018-12-13T08:58:57.214Z,10.32
2018-12-13T09:01:23.943Z,9.23
2018-12-13T09:03:50.671Z,9.85
2018-12-13T09:06:17.386Z,10.18
2018-12-13T09:08:44.335Z,10.00
2018-12-13T09:11:11.062Z,10.75
2018-12-13T09:13:37.798Z,9.83
2018-12-13T09:16:04.766Z,10.90
2018-12-13T09:18:31.530Z,9.70
2018-12-13T09:20:58.515Z,11.12
2018-12-13T09:23:25.471Z,7.78
2018-12-13T09:25:52.225Z,10.10
2018-12-13T09:28:18.960Z,8.40
2018-12-13T09:30:45.695Z,9.58
2018-12-13T09:33:12.427Z,9.98
2018-12-13T09:35:39.187Z,8.80
2018-12-13T09:38:05.933Z,7.35
2018-12-13T09:40:32.629Z,8.53
2018-12-13T09:42:59.598Z,8.58
2018-12-13T09:45:26.311Z,8.73
2018-12-13T09:47:53.043Z,10.00
2018-12-13T09:50:19.795Z,10.85
2018-12-13T09:52:46.528Z,9.08
2018-12-13T09:55:13.307Z,9.55
2018-12-13T09:57:40.050Z,8.08
2018-12-13T10:00:07.831Z,8.38
2018-12-13T10:02:34.821Z,8.80
2018-12-13T10:05:01.544Z,9.88
2018-12-13T10:07:28.317Z,7.22
2018-12-13T10:09:55.366Z,8.15
2018-12-13T10:12:22.129Z,7.17
2018-12-13T10:14:48.851Z,10.58
2018-12-13T10:17:15.840Z,7.97
2018-12-13T10:19:42.837Z,7.00
2018-12-13T10:22:11.782Z,9.70
2018-12-13T10:24:38.649Z,7.58
2018-12-13T10:27:05.630Z,8.60
2018-12-13T10:29:32.363Z,9.33
2018-12-13T10:31:59.091Z,6.60
2018-12-13T10:34:26.048Z,8.63
2018-12-13T10:36:52.919Z,7.25
2018-12-13T10:39:19.640Z,7.17
2018-12-13T10:41:46.401Z,10.55
2018-12-13T10:44:13.143Z,9.65
2018-12-13T10:46:39.876Z,6.75
2018-12-13T10:49:06.840Z,6.92
2018-12-13T10:51:33.720Z,7.28
2018-12-13T10:54:00.435Z,8.68
2018-12-13T10:56:27.220Z,10.05
2018-12-13T10:58:54.399Z,13.75
2018-12-13T11:04:28.335Z,10.25
2018-12-13T11:06:55.391Z,7.42
2018-12-13T11:09:22.551Z,6.72
2018-12-13T11:11:49.286Z,8.13
2018-12-13T11:14:18.139Z,13.88
2018-12-13T11:16:45.145Z,9.88
2018-12-13T11:19:11.920Z,7.42
2018-12-13T11:21:38.776Z,7.67
2018-12-13T11:24:05.773Z,7.85
2018-12-13T11:26:32.768Z,7.62
2018-12-13T11:29:05.355Z,7.12
2018-12-13T11:31:32.078Z,7.20
2018-12-13T11:33:58.842Z,8.05
2018-12-13T11:36:25.634Z,7.37
2018-12-13T11:38:52.377Z,7.95
2018-12-13T11:41:19.103Z,6.67
2018-12-13T11:43:45.810Z,6.67
2018-12-13T11:46:12.522Z,6.80
2018-12-13T11:48:39.255Z,8.05
2018-12-13T11:51:05.982Z,6.72
2018-12-13T11:53:34.695Z,8.45
2018-12-13T11:56:01.418Z,7.92
2018-12-13T11:58:28.374Z,7.33
2018-12-13T12:00:55.389Z,7.75
2018-12-13T12:03:22.355Z,8.65
2018-12-13T12:05:49.107Z,8.05
2018-12-13T12:08:15.836Z,8.05
2018-12-13T12:10:42.542Z,7.28
2018-12-13T12:13:09.277Z,7.70
2018-12-13T12:15:36.020Z,6.08
2018-12-13T12:18:02.846Z,5.85
2018-12-13T12:20:29.571Z,8.98
2018-12-13T12:22:56.330Z,6.20
2018-12-13T12:25:23.060Z,6.10
2018-12-13T12:27:49.787Z,6.83
2018-12-13T12:30:16.538Z,7.03
2018-12-13T12:32:43.264Z,7.28
2018-12-13T12:35:10.857Z,6.47
2018-12-13T12:37:37.835Z,6.40
2018-12-13T12:40:05.878Z,6.45
2018-12-13T12:42:33.128Z,6.37
2018-12-13T12:45:00.538Z,6.92
2018-12-13T12:47:27.428Z,6.17
2018-12-13T12:49:54.547Z,6.95
2018-12-13T12:52:22.872Z,5.83
2018-12-13T12:54:50.677Z,7.42
2018-12-13T12:57:18.644Z,7.17
2018-12-13T12:59:46.799Z,9.13
2018-12-13T13:02:15.522Z,7.50
2018-12-13T13:04:43.057Z,7.83
2018-12-13T13:07:10.519Z,7.95
2018-12-13T13:09:37.749Z,7.50
2018-12-13T13:12:04.551Z,6.90
2018-12-13T13:14:32.010Z,7.17
2018-12-13T13:17:00.054Z,7.35
2018-12-13T13:19:26.953Z,8.25
2018-12-13T13:21:57.096Z,7.08
2018-12-13T13:24:25.496Z,7.50
2018-12-13T13:26:52.840Z,6.70
2018-12-13T13:29:21.052Z,6.78
2018-12-13T13:31:48.049Z,7.28
2018-12-13T13:34:16.075Z,7.97
2018-12-13T13:36:43.202Z,9.05
2018-12-13T13:39:10.866Z,7.05
2018-12-13T13:41:37.582Z,6.90
2018-12-13T13:44:05.866Z,7.50
2018-12-13T13:46:32.988Z,7.62
2018-12-13T13:49:01.314Z,8.03
2018-12-13T13:51:29.559Z,9.23
2018-12-13T13:53:58.014Z,7.90
2018-12-13T13:56:25.115Z,6.85
2018-12-13T13:58:53.149Z,7.60
2018-12-13T14:01:21.139Z,6.62
2018-12-13T14:06:37.502Z,7.95
2018-12-13T14:09:06.070Z,7.90
2018-12-13T14:11:33.126Z,7.90
2018-12-13T14:14:00.004Z,7.67
2018-12-13T14:16:27.055Z,7.47
2018-12-13T14:18:53.826Z,7.08
2018-12-13T14:21:21.485Z,7.35
2018-12-13T14:23:50.844Z,8.55
2018-12-13T14:26:18.606Z,8.10
2018-12-13T14:28:45.635Z,8.88
2018-12-13T14:31:12.532Z,9.80
2018-12-13T14:33:39.994Z,10.20
2018-12-13T14:36:07.486Z,8.35
2018-12-13T14:38:35.238Z,8.40
2018-12-13T14:41:02.051Z,9.38
2018-12-13T14:43:28.763Z,10.63
2018-12-13T14:45:55.501Z,9.80
2018-12-13T14:48:22.191Z,8.68
2018-12-13T14:50:48.908Z,11.63
2018-12-13T14:53:15.741Z,9.03
2018-12-13T14:55:42.480Z,8.80
2018-12-13T14:58:09.203Z,9.65
2018-12-13T15:00:35.883Z,8.93
2018-12-13T15:03:02.612Z,8.50
2018-12-13T15:05:29.468Z,10.63
2018-12-13T15:07:56.201Z,8.80
2018-12-13T15:10:22.924Z,10.70
2018-12-13T15:12:49.663Z,8.35
2018-12-13T15:15:16.404Z,9.90
2018-12-13T15:17:43.115Z,10.18
2018-12-13T15:20:09.817Z,11.38
2018-12-13T15:22:36.555Z,9.70
2018-12-13T15:25:03.412Z,8.85
2018-12-13T15:27:30.145Z,9.40
2018-12-13T15:29:56.869Z,9.35
2018-12-13T15:32:23.795Z,9.33
2018-12-13T15:34:50.501Z,10.60
2018-12-13T15:37:17.204Z,9.10
2018-12-13T15:39:43.931Z,9.98
2018-12-13T15:42:10.636Z,8.65
2018-12-13T15:44:37.365Z,9.43
2018-12-13T15:47:04.114Z,9.93
2018-12-13T15:49:31.027Z,8.15
2018-12-13T15:51:57.756Z,9.03
2018-12-13T15:54:24.463Z,9.83
2018-12-13T15:56:51.221Z,8.40
2018-12-13T15:59:17.928Z,10.60
2018-12-13T16:01:44.639Z,8.30
2018-12-13T16:04:11.366Z,10.13
2018-12-13T16:06:38.079Z,8.20
2018-12-13T16:09:05.649Z,8.65
2018-12-13T16:11:32.349Z,9.73
2018-12-13T16:13:59.164Z,8.60
2018-12-13T16:16:26.018Z,10.75
2018-12-13T16:18:52.728Z,8.58
2018-12-13T16:21:19.506Z,11.18
2018-12-13T16:23:46.239Z,10.35
2018-12-13T16:26:12.952Z,9.13
2018-12-13T16:28:39.675Z,9.85
2018-12-13T16:31:06.392Z,10.70
2018-12-13T16:33:33.136Z,10.08
2018-12-13T16:35:59.841Z,9.10
2018-12-13T16:38:26.600Z,9.20
2018-12-13T16:40:53.308Z,9.85
2018-12-13T16:43:20.008Z,10.93
2018-12-13T16:45:46.735Z,11.68
2018-12-13T16:48:13.445Z,13.13
2018-12-13T16:50:40.173Z,12.75
2018-12-13T16:53:07.648Z,12.43
2018-12-13T16:55:34.391Z,10.38
2018-12-13T16:58:01.108Z,11.10
2018-12-13T17:00:28.398Z,13.40
2018-12-13T17:02:55.155Z,12.47
2018-12-13T17:05:21.864Z,11.43
2018-12-13T17:07:48.804Z,10.38
2018-12-13T17:10:16.910Z,11.45
2018-12-13T17:12:44.635Z,9.93
2018-12-13T17:15:12.248Z,11.30
2018-12-13T17:17:39.098Z,12.20
2018-12-13T17:20:06.403Z,10.82
2018-12-13T17:22:33.252Z,10.65
2018-12-13T17:25:03.032Z,12.93
2018-12-13T17:27:31.532Z,17.80
2018-12-13T17:29:59.295Z,10.55
2018-12-13T17:32:26.730Z,12.90
2018-12-13T17:34:55.959Z,13.25
2018-12-13T17:37:24.279Z,10.53
2018-12-13T17:39:52.342Z,12.82
2018-12-13T17:42:19.346Z,12.23
2018-12-13T17:44:48.212Z,13.60
2018-12-13T17:47:16.449Z,11.78
2018-12-13T17:49:45.468Z,12.30
2018-12-13T17:52:14.766Z,14.13
2018-12-13T17:54:42.936Z,13.90
2018-12-13T17:57:10.808Z,11.70
2018-12-13T17:59:38.594Z,11.88
2018-12-13T18:02:08.031Z,11.20
2018-12-13T18:04:37.083Z,11.93
2018-12-13T18:07:04.183Z,13.85
2018-12-13T18:09:33.055Z,14.13
2018-12-13T18:12:00.152Z,14.73
2018-12-13T18:14:27.332Z,16.60
2018-12-13T18:16:54.165Z,13.85
2018-12-13T18:19:22.443Z,15.78
2018-12-13T18:21:49.472Z,17.60
2018-12-13T18:24:16.266Z,15.65
2018-12-13T18:26:44.635Z,18.00
2018-12-13T18:29:12.152Z,15.03
2018-12-13T18:31:39.840Z,11.57
2018-12-13T18:34:06.696Z,13.08
2018-12-13T18:36:33.436Z,12.65
2018-12-13T18:39:00.224Z,16.65
2018-12-13T18:41:26.954Z,12.47
2018-12-13T18:43:53.692Z,11.75
2018-12-13T18:46:20.410Z,14.05
2018-12-13T18:48:47.135Z,14.63
2018-12-13T18:51:13.873Z,19.60
2018-12-13T18:53:40.575Z,15.90
2018-12-13T18:56:07.388Z,14.10
2018-12-13T18:58:34.115Z,17.00
2018-12-13T19:01:00.864Z,20.57
2018-12-13T19:03:27.596Z,15.43
2018-12-13T19:05:54.370Z,14.65
2018-12-13T19:08:21.164Z,13.15
2018-12-13T19:10:48.229Z,15.30
2018-12-13T19:13:15.782Z,15.35
2018-12-13T19:15:42.779Z,15.35
2018-12-13T19:18:09.700Z,16.45
2018-12-13T19:20:36.459Z,16.05
2018-12-13T19:23:03.246Z,20.40
2018-12-13T19:25:30.362Z,15.60
2018-12-13T19:27:57.274Z,18.15
2018-12-13T19:30:24.022Z,17.82
2018-12-13T19:32:50.766Z,18.15
2018-12-13T19:35:19.476Z,24.02
2018-12-13T19:37:46.295Z,17.82
2018-12-13T19:40:13.125Z,15.50
2018-12-13T19:42:39.875Z,15.68
2018-12-13T19:45:06.623Z,17.87
2018-12-13T19:47:35.291Z,18.25
2018-12-13T19:50:02.808Z,25.10
2018-12-13T19:52:31.608Z,21.65
2018-12-13T19:54:58.668Z,18.15
2018-12-13T19:57:26.601Z,19.75
2018-12-13T19:59:53.353Z,21.10
2018-12-13T20:02:21.668Z,20.25
2018-12-13T20:04:48.545Z,22.82
2018-12-13T20:07:15.276Z,19.55
2018-12-13T20:09:42.797Z,21.60
2018-12-13T20:12:10.717Z,19.92
2018-12-13T20:14:37.637Z,17.65
2018-12-13T20:17:04.352Z,18.02
2018-12-13T20:19:32.051Z,19.15
2018-12-13T20:21:58.788Z,21.65
2018-12-13T20:24:25.530Z,24.40
2018-12-13T20:26:52.701Z,19.95
2018-12-13T20:29:20.616Z,21.30
2018-12-13T20:31:47.345Z,19.10
2018-12-13T20:34:14.497Z,20.30
2018-12-13T20:36:41.218Z,17.87
2018-12-13T20:39:09.710Z,20.35
2018-12-13T20:41:37.248Z,18.57
2018-12-13T20:44:03.964Z,19.40
2018-12-13T20:46:31.741Z,16.82
2018-12-13T20:48:58.636Z,21.73
2018-12-13T20:51:25.507Z,17.85
2018-12-13T20:53:52.297Z,21.17
2018-12-13T20:56:19.009Z,20.40
2018-12-13T20:58:46.565Z,19.87
2018-12-13T21:01:13.317Z,18.00
2018-12-13T21:03:40.098Z,21.20
2018-12-13T21:06:06.995Z,21.02
2018-12-13T21:08:33.749Z,18.75
2018-12-13T21:11:00.466Z,18.50
2018-12-13T21:13:27.191Z,18.40
2018-12-13T21:15:53.932Z,20.30
2018-12-13T21:18:20.704Z,21.90
2018-12-13T21:20:47.435Z,23.85
2018-12-13T21:23:14.161Z,26.57
2018-12-13T21:25:40.945Z,22.98
2018-12-13T21:28:07.702Z,18.25
2018-12-13T21:30:34.421Z,23.20
2018-12-13T21:33:01.148Z,23.90
2018-12-13T21:35:27.864Z,21.05
2018-12-13T21:37:54.600Z,20.95
2018-12-13T21:40:21.348Z,19.55
2018-12-13T21:42:48.080Z,21.57
2018-12-13T21:45:14.890Z,18.90
2018-12-13T21:47:41.605Z,21.77
2018-12-13T21:50:08.368Z,20.50
2018-12-13T21:52:35.157Z,20.95
2018-12-13T21:55:01.872Z,19.85
2018-12-13T21:57:28.617Z,22.42
2018-12-13T21:59:55.549Z,20.12
2018-12-13T22:02:22.341Z,20.70
2018-12-13T22:04:49.125Z,18.32
2018-12-13T22:07:15.844Z,21.10
2018-12-13T22:09:42.557Z,22.95
2018-12-13T22:12:09.302Z,19.10
2018-12-13T22:14:36.332Z,20.68
2018-12-13T22:17:04.892Z,18.17
2018-12-13T22:19:31.761Z,16.87
2018-12-13T22:21:58.476Z,17.07
2018-12-13T22:24:25.213Z,17.40
2018-12-13T22:26:51.921Z,16.77
2018-12-13T22:29:18.645Z,16.37
2018-12-13T22:31:45.913Z,19.60
2018-12-13T22:34:13.274Z,22.73
2018-12-13T22:36:40.313Z,19.27
2018-12-13T22:39:07.077Z,21.40
2018-12-13T22:41:33.818Z,18.95
2018-12-13T22:44:00.531Z,23.55
2018-12-13T22:46:27.271Z,20.72
2018-12-13T22:48:53.986Z,21.50
2018-12-13T22:51:20.693Z,21.60
2018-12-13T22:53:47.451Z,23.42
2018-12-13T22:56:14.158Z,24.40
2018-12-13T22:58:40.877Z,24.45
2018-12-13T23:01:07.669Z,29.25
2018-12-13T23:03:34.436Z,23.20
2018-12-13T23:06:01.153Z,26.07
2018-12-13T23:08:27.892Z,23.32
2018-12-13T23:10:54.776Z,27.77
2018-12-13T23:13:21.488Z,29.87
2018-12-13T23:15:48.230Z,27.62
2018-12-13T23:18:14.956Z,27.87
2018-12-13T23:20:41.685Z,29.42
2018-12-13T23:23:08.417Z,26.82
2018-12-13T23:25:35.167Z,27.10
2018-12-13T23:28:01.936Z,26.02
2018-12-13T23:30:29.031Z,25.90
2018-12-13T23:32:55.763Z,32.90
2018-12-13T23:35:22.473Z,28.00
2018-12-13T23:37:49.202Z,34.38
2018-12-13T23:40:15.904Z,27.58
2018-12-13T23:42:42.625Z,28.77
2018-12-13T23:45:09.353Z,24.02
2018-12-13T23:47:36.070Z,28.65
2018-12-13T23:50:02.991Z,25.60
2018-12-13T23:52:29.696Z,28.45
2018-12-13T23:54:56.414Z,29.87
2018-12-13T23:57:23.156Z,28.40
2018-12-13T23:59:51.268Z,27.27
